createdAt,value
2019-04-29T00:01:40.183Z,3.63
2019-04-29T00:04:10.113Z,3.90
2019-04-29T00:06:40.132Z,3.73
2019-04-29T00:09:15.644Z,3.50
2019-04-29T00:11:45.679Z,3.60
2019-04-29T00:14:15.560Z,4.43
2019-04-29T00:16:57.838Z,4.13
2019-04-29T00:19:36.425Z,4.20
2019-04-29T00:22:06.601Z,4.03
2019-04-29T00:24:36.546Z,3.80
2019-04-29T00:27:06.558Z,4.87
2019-04-29T00:29:36.607Z,5.13
2019-04-29T00:32:07.212Z,4.47
2019-04-29T00:34:37.149Z,4.97
2019-04-29T00:37:33.330Z,4.97
2019-04-29T00:40:25.055Z,5.30
2019-04-29T00:43:01.853Z,4.60
2019-04-29T00:45:31.790Z,5.60
2019-04-29T00:48:01.735Z,5.60
2019-04-29T00:50:31.604Z,5.37
2019-04-29T00:53:01.560Z,5.87
2019-04-29T00:55:32.941Z,5.50
2019-04-29T00:58:02.913Z,5.83
2019-04-29T01:00:37.794Z,5.40
2019-04-29T01:03:07.917Z,5.83
2019-04-29T01:05:38.469Z,5.90
2019-04-29T01:08:08.615Z,5.53
2019-04-29T01:10:38.535Z,5.63
2019-04-29T01:13:08.663Z,6.03
2019-04-29T01:15:38.694Z,5.67
2019-04-29T01:18:08.731Z,6.33
2019-04-29T01:20:38.601Z,5.93
2019-04-29T01:23:08.848Z,6.57
2019-04-29T01:25:38.720Z,6.07
2019-04-29T01:28:29.070Z,6.30
2019-04-29T01:31:04.508Z,6.63
2019-04-29T01:33:34.539Z,6.93
2019-04-29T01:36:18.963Z,7.47
2019-04-29T01:38:50.128Z,6.97
2019-04-29T01:41:22.326Z,7.73
2019-04-29T01:44:11.171Z,7.80
2019-04-29T01:46:41.046Z,7.97
2019-04-29T01:49:10.934Z,8.57
2019-04-29T01:51:40.892Z,9.47
2019-04-29T01:54:10.881Z,9.10
2019-04-29T01:56:41.068Z,10.13
2019-04-29T01:59:10.943Z,8.67
2019-04-29T02:01:40.844Z,9.57
2019-04-29T02:04:11.157Z,10.03
2019-04-29T02:06:41.051Z,10.10
2019-04-29T02:09:15.683Z,9.33
2019-04-29T02:11:45.567Z,11.17
2019-04-29T02:14:15.589Z,10.37
2019-04-29T02:16:45.489Z,11.20
2019-04-29T02:19:15.374Z,11.23
2019-04-29T02:22:04.214Z,11.80
2019-04-29T02:24:35.617Z,11.50
2019-04-29T02:27:05.878Z,11.63
2019-04-29T02:29:35.874Z,12.33
2019-04-29T02:32:05.959Z,10.90
2019-04-29T02:34:35.872Z,12.30
2019-04-29T02:37:07.507Z,11.13
2019-04-29T02:39:45.344Z,12.47
2019-04-29T02:42:43.226Z,12.23
2019-04-29T02:45:21.668Z,12.33
2019-04-29T02:47:51.542Z,11.93
2019-04-29T02:50:21.436Z,12.83
2019-04-29T02:52:51.322Z,13.60
2019-04-29T02:55:29.738Z,13.27
2019-04-29T02:58:24.725Z,13.03
2019-04-29T03:01:13.728Z,11.90
2019-04-29T03:03:54.076Z,13.93
2019-04-29T03:06:24.110Z,13.40
2019-04-29T03:08:54.000Z,14.43
2019-04-29T03:11:25.589Z,13.67
2019-04-29T03:13:55.582Z,14.37
2019-04-29T03:16:25.597Z,13.67
2019-04-29T03:19:00.245Z,14.83
2019-04-29T03:21:37.800Z,13.83
2019-04-29T03:24:07.661Z,14.87
2019-04-29T03:26:37.562Z,15.23
2019-04-29T03:29:22.227Z,16.07
2019-04-29T03:31:54.284Z,16.07
2019-04-29T03:34:26.458Z,15.30
2019-04-29T03:36:56.155Z,18.17
2019-04-29T03:39:26.166Z,17.40
2019-04-29T03:41:56.106Z,16.10
2019-04-29T03:44:25.984Z,15.83
2019-04-29T03:46:55.884Z,16.30
2019-04-29T03:49:25.733Z,18.10
2019-04-29T03:51:56.190Z,16.40
2019-04-29T03:54:26.062Z,18.20
2019-04-29T03:56:55.943Z,17.07
2019-04-29T03:59:25.838Z,18.67
2019-04-29T04:02:11.872Z,17.07
2019-04-29T04:05:01.293Z,17.97
2019-04-29T04:07:38.798Z,17.43
2019-04-29T04:10:10.264Z,17.43
2019-04-29T04:12:40.175Z,18.73
2019-04-29T04:15:10.517Z,20.93
2019-04-29T04:17:46.020Z,20.60
2019-04-29T04:20:16.142Z,20.90
2019-04-29T04:22:47.020Z,20.23
2019-04-29T04:25:17.623Z,21.03
2019-04-29T04:27:48.202Z,21.47
2019-04-29T04:30:20.058Z,22.30
2019-04-29T04:32:49.950Z,20.53
2019-04-29T04:35:19.888Z,20.93
2019-04-29T04:37:49.835Z,21.10
2019-04-29T04:40:25.885Z,19.73
2019-04-29T04:42:55.805Z,22.43
2019-04-29T04:45:25.678Z,21.47
2019-04-29T04:47:55.565Z,23.93
2019-04-29T04:50:25.447Z,22.43
2019-04-29T04:52:55.340Z,22.23
2019-04-29T04:55:28.155Z,21.93
2019-04-29T04:57:58.087Z,22.03
2019-04-29T05:00:29.707Z,24.03
2019-04-29T05:02:59.681Z,24.73
2019-04-29T05:05:29.630Z,24.60
2019-04-29T05:07:59.631Z,23.57
2019-04-29T05:10:29.741Z,27.97
2019-04-29T05:12:59.709Z,24.43
2019-04-29T05:15:29.606Z,25.67
2019-04-29T05:17:59.557Z,26.47
2019-04-29T05:20:29.448Z,21.87
2019-04-29T05:22:59.365Z,23.70
2019-04-29T05:25:34.657Z,22.57
2019-04-29T05:28:05.261Z,27.30
2019-04-29T05:30:35.164Z,26.07
2019-04-29T05:33:05.231Z,23.53
2019-04-29T05:35:44.772Z,32.70
2019-04-29T05:38:20.412Z,26.20
2019-04-29T05:40:51.480Z,27.03
2019-04-29T05:43:26.957Z,45.87
2019-04-29T05:46:07.791Z,30.33
2019-04-29T05:48:37.711Z,29.53
2019-04-29T05:51:27.343Z,28.43
2019-04-29T05:53:58.501Z,24.57
2019-04-29T05:56:28.547Z,28.57
2019-04-29T05:58:58.584Z,24.63
2019-04-29T06:01:30.595Z,32.03
2019-04-29T06:04:00.553Z,28.70
2019-04-29T06:06:30.500Z,25.97
2019-04-29T06:09:00.414Z,26.50
2019-04-29T06:11:30.352Z,24.80
2019-04-29T06:14:00.386Z,25.13
2019-04-29T06:16:30.280Z,25.43
2019-04-29T06:19:03.107Z,21.73
2019-04-29T06:21:31.799Z,20.83
2019-04-29T06:24:04.205Z,22.13
2019-04-29T06:26:33.813Z,21.40
2019-04-29T06:29:05.917Z,21.50
2019-04-29T06:31:35.691Z,21.17
2019-04-29T06:34:06.556Z,21.20
2019-04-29T06:36:36.683Z,23.20
2019-04-29T06:39:07.779Z,22.33
2019-04-29T06:41:40.509Z,21.30
2019-04-29T06:44:16.030Z,24.47
2019-04-29T06:46:41.086Z,23.70
2019-04-29T06:49:11.044Z,20.93
2019-04-29T06:51:40.956Z,21.43
2019-04-29T06:54:10.926Z,20.97
2019-04-29T06:56:40.946Z,20.13
2019-04-29T06:59:12.058Z,17.70
2019-04-29T07:01:42.556Z,19.73
2019-04-29T07:04:12.478Z,20.80
2019-04-29T07:06:56.435Z,18.80
2019-04-29T07:09:14.017Z,17.50
2019-04-29T07:11:44.014Z,19.37
2019-04-29T07:14:13.898Z,16.17
2019-04-29T07:16:43.877Z,16.07
2019-04-29T07:19:13.822Z,7.03
2019-04-29T07:21:46.879Z,9.63
2019-04-29T07:24:15.606Z,10.00
2019-04-29T07:26:45.656Z,10.33
2019-04-29T07:29:15.533Z,14.00
2019-04-29T07:31:45.433Z,13.33
2019-04-29T07:34:15.320Z,12.87
2019-04-29T07:36:45.629Z,11.57
2019-04-29T07:39:15.612Z,11.97
2019-04-29T07:41:45.643Z,11.00
2019-04-29T07:44:18.411Z,12.23
2019-04-29T07:46:58.263Z,11.13
2019-04-29T07:49:24.221Z,12.53
2019-04-29T07:51:54.708Z,14.60
2019-04-29T07:54:24.710Z,15.57
2019-04-29T07:56:54.590Z,17.20
2019-04-29T07:59:24.477Z,16.73
2019-04-29T08:01:55.714Z,17.57
2019-04-29T08:04:26.552Z,16.17
2019-04-29T08:06:57.089Z,16.60
2019-04-29T08:09:27.219Z,18.77
2019-04-29T08:11:57.912Z,18.47
2019-04-29T08:14:30.761Z,19.23
2019-04-29T08:17:01.324Z,20.23
2019-04-29T08:19:31.658Z,21.27
2019-04-29T08:22:01.832Z,22.07
2019-04-29T08:24:31.813Z,19.10
2019-04-29T08:27:02.137Z,19.97
2019-04-29T08:29:35.853Z,17.97
2019-04-29T08:32:03.678Z,18.13
2019-04-29T08:34:33.603Z,18.70
2019-04-29T08:37:03.656Z,17.30
2019-04-29T08:39:33.630Z,18.23
2019-04-29T08:42:09.001Z,21.30
2019-04-29T08:44:59.644Z,19.00
2019-04-29T08:47:31.806Z,20.17
2019-04-29T08:50:02.212Z,18.57
2019-04-29T08:52:32.168Z,21.13
2019-04-29T08:55:02.254Z,16.57
2019-04-29T08:57:36.538Z,20.47
2019-04-29T09:00:05.242Z,19.23
2019-04-29T09:02:35.817Z,20.97
2019-04-29T09:05:11.409Z,20.10
2019-04-29T09:07:38.810Z,19.83
2019-04-29T09:10:10.267Z,20.83
2019-04-29T09:12:40.523Z,20.07
2019-04-29T09:15:11.907Z,19.33
2019-04-29T09:17:41.879Z,20.70
2019-04-29T09:20:12.607Z,18.97
2019-04-29T09:22:47.286Z,18.73
2019-04-29T09:25:31.949Z,17.53
2019-04-29T09:28:06.085Z,18.10
2019-04-29T09:30:38.620Z,18.67
2019-04-29T09:33:08.730Z,19.73
2019-04-29T09:35:40.583Z,17.40
2019-04-29T09:38:10.891Z,18.43
2019-04-29T09:40:45.979Z,20.80
2019-04-29T09:43:47.311Z,20.33
2019-04-29T09:46:21.912Z,19.07
2019-04-29T09:48:51.856Z,20.50
2019-04-29T09:51:22.821Z,18.80
2019-04-29T09:53:53.545Z,19.60
2019-04-29T09:56:23.484Z,20.80
2019-04-29T09:59:12.685Z,22.07
2019-04-29T10:01:50.534Z,19.17
2019-04-29T10:04:28.548Z,17.53
2019-04-29T10:06:58.960Z,20.60
2019-04-29T10:09:29.043Z,18.90
2019-04-29T10:11:58.995Z,20.37
2019-04-29T10:14:29.059Z,20.50
2019-04-29T10:17:19.458Z,19.50
2019-04-29T10:20:04.411Z,21.07
2019-04-29T10:22:34.991Z,17.43
2019-04-29T10:25:05.963Z,18.10
2019-04-29T10:27:35.989Z,21.17
2019-04-29T10:30:07.400Z,19.37
2019-04-29T10:32:37.832Z,18.23
2019-04-29T10:35:10.726Z,19.07
2019-04-29T10:37:40.993Z,16.67
2019-04-29T10:40:31.878Z,18.10
2019-04-29T10:43:36.030Z,17.90
2019-04-29T10:46:24.440Z,20.13
2019-04-29T10:49:05.304Z,19.70
2019-04-29T10:51:35.580Z,19.60
2019-04-29T10:54:06.034Z,18.73
2019-04-29T10:56:39.460Z,20.13
2019-04-29T10:59:11.119Z,18.07
2019-04-29T11:02:34.323Z,19.37
2019-04-29T11:05:20.547Z,16.43
2019-04-29T11:07:52.411Z,18.67
2019-04-29T11:10:26.757Z,18.80
2019-04-29T11:12:57.338Z,17.30
2019-04-29T11:15:38.154Z,18.50
2019-04-29T11:18:08.578Z,17.63
2019-04-29T11:20:38.520Z,18.43
2019-04-29T11:23:18.130Z,20.90
2019-04-29T11:26:10.223Z,16.53
2019-04-29T11:28:41.869Z,18.20
2019-04-29T11:31:13.997Z,16.93
2019-04-29T11:33:56.826Z,17.90
2019-04-29T11:36:26.783Z,16.63
2019-04-29T11:38:56.914Z,16.53
2019-04-29T11:41:30.640Z,16.67
2019-04-29T11:44:00.716Z,15.53
2019-04-29T11:46:31.421Z,17.33
2019-04-29T11:49:03.044Z,14.83
2019-04-29T11:51:48.413Z,15.77
2019-04-29T11:54:12.316Z,15.93
2019-04-29T11:56:40.605Z,16.80
2019-04-29T11:59:29.414Z,16.30
2019-04-29T12:02:10.888Z,16.50
2019-04-29T12:04:44.464Z,15.93
2019-04-29T12:07:14.368Z,16.77
2019-04-29T12:09:44.594Z,14.93
2019-04-29T12:12:15.770Z,15.97
2019-04-29T12:14:55.216Z,16.43
2019-04-29T12:17:38.036Z,14.89
2019-04-29T12:20:27.136Z,15.27
2019-04-29T12:22:57.024Z,15.53
2019-04-29T12:25:28.980Z,15.60
2019-04-29T12:28:01.566Z,15.70
2019-04-29T12:30:36.355Z,16.90
2019-04-29T12:33:11.846Z,13.20
2019-04-29T12:35:51.862Z,16.13
2019-04-29T12:38:40.136Z,13.40
2019-04-29T12:41:21.065Z,13.97
2019-04-29T12:43:59.414Z,14.10
2019-04-29T12:46:40.727Z,14.97
2019-04-29T12:49:13.575Z,13.60
2019-04-29T12:51:42.394Z,13.70
2019-04-29T12:54:12.433Z,13.97
2019-04-29T12:56:47.400Z,13.87
2019-04-29T12:59:14.660Z,13.80
2019-04-29T13:02:02.518Z,14.77
2019-04-29T13:04:54.924Z,13.60
2019-04-29T13:07:50.752Z,13.47
2019-04-29T13:10:29.817Z,16.27
2019-04-29T13:12:59.844Z,14.27
2019-04-29T13:15:39.482Z,13.50
2019-04-29T13:18:22.801Z,14.27
2019-04-29T13:20:50.456Z,12.13
2019-04-29T13:23:33.226Z,12.43
2019-04-29T13:25:50.951Z,14.43
2019-04-29T13:28:29.840Z,13.93
2019-04-29T13:30:56.729Z,12.83
2019-04-29T13:33:25.290Z,14.30
2019-04-29T13:35:55.162Z,13.90
2019-04-29T13:38:25.097Z,12.90
2019-04-29T13:41:12.004Z,12.43
2019-04-29T13:43:27.231Z,11.70
2019-04-29T13:46:10.390Z,13.13
2019-04-29T13:49:12.317Z,12.23
2019-04-29T13:51:35.975Z,11.10
2019-04-29T13:54:06.086Z,12.93
2019-04-29T13:56:55.697Z,11.93
2019-04-29T13:59:10.567Z,12.43
2019-04-29T14:02:00.071Z,12.33
2019-04-29T14:04:36.969Z,11.90
2019-04-29T14:07:06.982Z,11.67
2019-04-29T14:09:39.199Z,12.20
2019-04-29T14:12:46.634Z,11.10
2019-04-29T14:14:40.459Z,13.20
2019-04-29T14:17:25.305Z,11.90
2019-04-29T14:19:44.023Z,10.23
2019-04-29T14:22:22.050Z,11.20
2019-04-29T14:24:46.987Z,11.63
2019-04-29T14:27:24.434Z,12.10
2019-04-29T14:29:51.474Z,12.03
2019-04-29T14:32:33.310Z,9.57
2019-04-29T14:34:59.031Z,10.23
2019-04-29T14:37:29.440Z,10.47
2019-04-29T14:40:02.797Z,8.97
2019-04-29T14:42:41.625Z,9.17
2019-04-29T14:45:33.293Z,9.83
2019-04-29T14:48:26.725Z,10.33
2019-04-29T14:50:56.592Z,8.53
2019-04-29T14:53:26.490Z,8.17
2019-04-29T14:55:56.456Z,8.90
2019-04-29T14:58:26.311Z,8.60
2019-04-29T15:01:10.143Z,9.67
2019-04-29T15:03:57.900Z,9.37
2019-04-29T15:06:28.921Z,9.07
2019-04-29T15:08:59.280Z,8.50
2019-04-29T15:11:34.886Z,8.70
2019-04-29T15:14:25.789Z,7.73
2019-04-29T15:17:03.305Z,7.33
2019-04-29T15:19:58.230Z,7.77
2019-04-29T15:22:32.178Z,7.80
2019-04-29T15:25:02.071Z,6.80
2019-04-29T15:27:32.231Z,6.97
2019-04-29T15:30:02.210Z,6.60
2019-04-29T15:32:32.146Z,6.23
2019-04-29T15:35:02.527Z,6.33
2019-04-29T15:37:33.687Z,7.67
2019-04-29T15:40:04.205Z,6.53
2019-04-29T15:42:37.958Z,6.57
2019-04-29T15:45:06.969Z,5.53
2019-04-29T15:47:37.029Z,5.67
2019-04-29T15:50:18.266Z,6.40
2019-04-29T15:52:39.670Z,5.97
2019-04-29T15:55:09.863Z,5.57
2019-04-29T15:57:40.270Z,5.50
2019-04-29T16:00:21.646Z,5.87
2019-04-29T16:02:44.055Z,5.37
2019-04-29T16:05:30.003Z,4.60
2019-04-29T16:08:08.937Z,5.00
2019-04-29T16:10:51.746Z,4.73
2019-04-29T16:13:22.669Z,5.37
2019-04-29T16:15:52.220Z,4.97
2019-04-29T16:18:22.304Z,4.23
2019-04-29T16:20:54.123Z,5.03
2019-04-29T16:23:23.975Z,5.00
2019-04-29T16:25:54.500Z,5.33
2019-04-29T16:28:31.587Z,5.73
2019-04-29T16:30:56.262Z,4.77
2019-04-29T16:33:26.347Z,4.80
2019-04-29T16:36:04.386Z,4.57
2019-04-29T16:38:28.224Z,4.37
2019-04-29T16:41:12.448Z,4.93
2019-04-29T16:43:45.166Z,3.97
2019-04-29T16:48:51.045Z,4.00
2019-04-29T16:51:21.344Z,4.90
2019-04-29T16:53:51.370Z,3.70
2019-04-29T16:56:21.868Z,4.23
2019-04-29T16:58:51.902Z,4.03
2019-04-29T17:01:22.611Z,3.67
2019-04-29T17:03:52.673Z,4.67
2019-04-29T17:06:22.829Z,3.70
2019-04-29T17:09:23.959Z,3.57
2019-04-29T17:11:56.046Z,4.33
2019-04-29T17:14:26.576Z,4.53
2019-04-29T17:16:56.691Z,4.77
2019-04-29T17:19:26.599Z,4.70
2019-04-29T17:22:23.272Z,3.50
2019-04-29T17:24:28.411Z,4.20
2019-04-29T17:27:06.955Z,4.40
2019-04-29T17:30:03.559Z,3.57
2019-04-29T17:32:46.858Z,3.60
2019-04-29T17:35:14.348Z,3.90
2019-04-29T17:35:21.141Z,3.33
2019-04-29T17:37:45.602Z,3.60
2019-04-29T17:40:19.399Z,3.70
2019-04-29T17:42:53.859Z,3.37
2019-04-29T17:45:31.613Z,3.60
2019-04-29T17:48:12.511Z,3.60
2019-04-29T17:50:48.088Z,3.60
2019-04-29T17:53:25.487Z,3.70
2019-04-29T17:56:01.515Z,3.27
2019-04-29T17:58:36.109Z,3.30
2019-04-29T18:01:25.914Z,3.07
2019-04-29T18:04:16.730Z,3.27
2019-04-29T18:06:48.807Z,3.73
2019-04-29T18:09:27.880Z,3.27
2019-04-29T18:11:58.938Z,3.77
2019-04-29T18:14:36.565Z,3.03
2019-04-29T18:17:00.723Z,3.13
2019-04-29T18:19:37.772Z,3.57
2019-04-29T18:22:25.711Z,2.97
2019-04-29T18:25:01.250Z,3.43
2019-04-29T18:27:34.459Z,2.83
2019-04-29T18:30:07.149Z,3.00
2019-04-29T18:32:42.090Z,2.67
2019-04-29T18:35:09.495Z,2.97
2019-04-29T18:37:39.406Z,3.03
2019-04-29T18:40:10.216Z,2.93
2019-04-29T18:42:43.255Z,3.33
2019-04-29T18:45:12.643Z,3.10
2019-04-29T18:47:42.585Z,3.07
2019-04-29T18:50:13.306Z,3.10
2019-04-29T18:52:43.184Z,2.93
2019-04-29T18:55:13.209Z,3.43
2019-04-29T18:57:43.102Z,2.87
2019-04-29T19:00:19.058Z,3.30
2019-04-29T19:02:52.319Z,3.40
2019-04-29T19:05:26.403Z,3.67
2019-04-29T19:07:57.043Z,3.43
2019-04-29T19:10:32.923Z,3.93
2019-04-29T19:13:00.244Z,2.60
2019-04-29T19:15:28.957Z,2.97
2019-04-29T19:18:01.814Z,3.57
2019-04-29T19:20:30.476Z,3.53
2019-04-29T19:23:07.781Z,3.43
2019-04-29T19:25:32.160Z,3.10
2019-04-29T19:28:11.961Z,3.57
2019-04-29T19:30:35.527Z,3.50
2019-04-29T19:33:05.943Z,3.00
2019-04-29T19:35:38.693Z,3.40
2019-04-29T19:38:12.420Z,2.73
2019-04-29T19:40:42.387Z,3.53
2019-04-29T19:43:17.423Z,3.20
2019-04-29T19:45:44.648Z,3.07
2019-04-29T19:48:16.135Z,3.10
2019-04-29T19:50:50.167Z,3.10
2019-04-29T19:53:17.957Z,3.50
2019-04-29T19:55:47.842Z,3.50
2019-04-29T19:58:22.935Z,4.07
2019-04-29T20:00:49.830Z,3.60
2019-04-29T20:03:23.839Z,3.30
2019-04-29T20:06:07.995Z,3.40
2019-04-29T20:08:50.196Z,3.30
2019-04-29T20:11:11.282Z,3.03
2019-04-29T20:13:33.764Z,2.97
2019-04-29T20:16:40.554Z,3.23
2019-04-29T20:19:20.443Z,3.27
2019-04-29T20:21:47.403Z,3.10
2019-04-29T20:24:22.816Z,3.10
2019-04-29T20:26:50.379Z,2.90
2019-04-29T20:29:21.311Z,3.70
2019-04-29T20:31:53.947Z,3.03
2019-04-29T20:34:24.608Z,3.33
2019-04-29T20:36:55.755Z,3.63
2019-04-29T20:39:26.481Z,2.83
2019-04-29T20:42:01.097Z,3.43
2019-04-29T20:44:29.842Z,3.40
2019-04-29T20:47:16.512Z,3.40
2019-04-29T20:49:36.007Z,3.00
2019-04-29T20:52:25.911Z,2.93
2019-04-29T20:55:00.734Z,3.97
2019-04-29T20:57:28.495Z,3.53
2019-04-29T20:59:58.516Z,3.43
2019-04-29T21:02:34.183Z,3.10
2019-04-29T21:05:00.237Z,3.23
2019-04-29T21:07:30.712Z,4.13
2019-04-29T21:10:06.735Z,3.37
2019-04-29T21:12:41.503Z,3.23
2019-04-29T21:15:17.663Z,3.17
2019-04-29T21:17:47.637Z,3.57
2019-04-29T21:20:17.668Z,3.97
2019-04-29T21:22:47.580Z,3.57
2019-04-29T21:25:17.540Z,3.70
2019-04-29T21:27:48.596Z,3.73
2019-04-29T21:30:19.153Z,3.80
2019-04-29T21:32:49.118Z,3.57
2019-04-29T21:35:38.754Z,3.60
2019-04-29T21:38:28.365Z,3.60
2019-04-29T21:41:03.988Z,5.07
2019-04-29T21:43:36.592Z,3.90
2019-04-29T21:46:06.814Z,3.77
2019-04-29T21:48:37.500Z,3.87
2019-04-29T21:51:11.228Z,3.60
2019-04-29T21:53:40.394Z,3.73
2019-04-29T21:56:10.430Z,4.63
2019-04-29T21:58:41.450Z,4.07
2019-04-29T22:01:12.411Z,4.50
2019-04-29T22:03:42.301Z,3.53
2019-04-29T22:06:12.284Z,3.90
2019-04-29T22:08:42.166Z,4.10
2019-04-29T22:11:12.120Z,3.97
2019-04-29T22:13:42.011Z,3.67
2019-04-29T22:16:15.779Z,3.27
2019-04-29T22:18:44.601Z,3.53
2019-04-29T22:21:21.983Z,3.77
2019-04-29T22:23:51.031Z,3.77
2019-04-29T22:26:23.418Z,4.47
2019-04-29T22:28:53.217Z,3.57
2019-04-29T22:31:26.952Z,3.40
2019-04-29T22:33:55.291Z,4.23
2019-04-29T22:36:26.046Z,4.20
2019-04-29T22:38:55.936Z,3.80
2019-04-29T22:41:48.691Z,3.90
2019-04-29T22:44:21.771Z,3.80
2019-04-29T22:46:50.080Z,3.87
2019-04-29T22:49:27.204Z,4.77
2019-04-29T22:51:54.540Z,4.10
2019-04-29T22:54:24.614Z,4.33
2019-04-29T22:56:56.600Z,3.73
2019-04-29T22:59:27.451Z,4.27
2019-04-29T23:01:57.977Z,4.17
2019-04-29T23:04:27.844Z,4.47
2019-04-29T23:06:57.735Z,4.50
2019-04-29T23:09:27.617Z,4.37
2019-04-29T23:11:57.686Z,3.97
2019-04-29T23:14:27.907Z,4.13
2019-04-29T23:16:57.817Z,3.67
2019-04-29T23:19:27.769Z,4.23
2019-04-29T23:22:22.123Z,3.67
2019-04-29T23:25:05.591Z,3.90
2019-04-29T23:27:36.154Z,4.20
2019-04-29T23:30:07.755Z,3.93
2019-04-29T23:32:39.461Z,4.30
2019-04-29T23:35:10.821Z,4.50
2019-04-29T23:37:41.051Z,3.93
2019-04-29T23:40:11.320Z,3.90
2019-04-29T23:42:43.649Z,3.77
2019-04-29T23:45:20.780Z,4.00
2019-04-29T23:47:46.949Z,4.37
2019-04-29T23:50:21.030Z,4.03
2019-04-29T23:52:52.061Z,4.30
2019-04-29T23:55:27.386Z,3.80
2019-04-29T23:58:12.385Z,4.60
